Time;durP1;ratioP1;P1;durP2;ratioP2;P2;SDS_P1;SDS_P2;PMS_P1;PMS_P2;Temp;Humidity;BMP_temperature;BMP_pressure;BME280_temperature;BME280_humidity;BME280_pressure;Samples;Min_cycle;Max_cycle;Signal;HPM_P1;HPM_P2
2022/04/13 00:00:13;;;;;;;11.82;3.28;;;;;;;11.63;67.49;99537.44;5013312;28;20084;-64
2022/04/13 00:02:57;;;;;;;8.38;3.20;;;;;;;11.60;67.72;99534.88;5013803;28;20108;-65
2022/04/13 00:05:41;;;;;;;9.80;3.80;;;;;;;11.62;67.73;99546.09;5013561;28;20096;-64
2022/04/13 00:08:25;;;;;;;9.15;4.07;;;;;;;11.63;67.86;99540.94;5013133;28;20056;-65
2022/04/13 00:11:10;;;;;;;8.30;3.38;;;;;;;11.64;67.48;99545.25;5013421;28;20049;-65
2022/04/13 00:13:54;;;;;;;11.52;3.42;;;;;;;11.65;67.84;99544.41;4998843;28;20060;-65
2022/04/13 00:16:39;;;;;;;3.92;2.83;;;;;;;11.65;67.38;99547.00;5013371;28;20045;-65
2022/04/13 00:19:24;;;;;;;9.75;3.75;;;;;;;11.65;67.41;99546.09;5013342;28;20465;-66
2022/04/13 00:22:08;;;;;;;6.82;3.47;;;;;;;11.66;67.62;99550.44;5016327;28;20099;-64
2022/04/13 00:24:52;;;;;;;9.95;3.72;;;;;;;11.65;67.70;99562.56;5001376;28;20048;-65
2022/04/13 00:27:36;;;;;;;8.95;3.25;;;;;;;11.64;67.71;99550.44;5016423;28;20118;-65
2022/04/13 00:30:20;;;;;;;13.25;3.85;;;;;;;11.64;67.25;99558.25;5016757;28;20048;-65
2022/04/13 00:33:04;;;;;;;9.27;3.88;;;;;;;11.64;67.90;99560.84;5001681;28;20194;-64
2022/04/13 00:35:48;;;;;;;5.22;2.70;;;;;;;11.64;67.63;99553.03;5016683;28;20052;-65
2022/04/13 00:38:32;;;;;;;10.30;3.95;;;;;;;11.65;67.74;99564.28;5001392;28;20049;-64
2022/04/13 00:41:17;;;;;;;;;;;;;;;11.62;67.64;99559.06;5016443;28;20049;-64
2022/04/13 00:44:07;;;;;;;5.35;3.17;;;;;;;11.61;67.49;99565.13;5015947;28;19971;-65
2022/04/13 00:46:51;;;;;;;7.20;4.18;;;;;;;11.63;67.84;99558.22;5015254;28;20100;-65
2022/04/13 00:49:36;;;;;;;12.13;3.65;;;;;;;11.63;67.89;99560.81;5015362;28;20088;-65
2022/04/13 00:52:23;;;;;;;9.05;3.38;;;;;;;11.63;67.79;99566.00;5001121;28;20052;-64
2022/04/13 00:55:08;;;;;;;6.80;2.70;;;;;;;11.60;67.80;99559.06;5015243;28;20056;-64
2022/04/13 00:57:54;;;;;;;10.35;3.95;;;;;;;11.62;67.42;99561.66;5001147;28;20103;-65
2022/04/13 01:00:39;;;;;;;10.07;4.10;;;;;;;11.62;67.79;99556.47;5016005;28;20620;-64
2022/04/13 01:03:25;;;;;;;6.15;3.72;;;;;;;11.61;67.57;99563.41;5015577;28;20142;-65
2022/04/13 01:06:10;;;;;;;10.30;3.67;;;;;;;11.61;67.81;99563.41;5001125;28;20080;-64
2022/04/13 01:08:55;;;;;;;;;;;;;;;11.61;67.49;99567.72;5016116;28;20080;-65
2022/04/13 01:11:40;;;;;;;11.57;5.07;;;;;;;11.60;67.89;99564.28;5001190;28;19920;-65
2022/04/13 01:14:24;;;;;;;13.48;4.75;;;;;;;11.61;67.97;99570.31;5001054;28;20143;-64
2022/04/13 01:17:08;;;;;;;9.55;4.22;;;;;;;11.62;67.91;99566.84;5001278;28;20069;-64
2022/04/13 01:19:52;;;;;;;8.85;3.35;;;;;;;11.63;67.63;99568.59;5001103;28;20111;-65
2022/04/13 01:22:37;;;;;;;;;;;;;;;11.61;67.90;99576.38;5015744;28;20405;-65
2022/04/13 01:25:21;;;;;;;11.32;3.72;;;;;;;11.62;67.89;99585.03;5001099;28;19980;-65
2022/04/13 01:28:06;;;;;;;9.18;3.55;;;;;;;11.61;67.71;99588.47;5015729;28;20512;-65
2022/04/13 01:30:49;;;;;;;10.23;4.03;;;;;;;11.62;67.82;99595.41;5015396;28;20131;-65
2022/04/13 01:33:34;;;;;;;15.07;4.32;;;;;;;11.62;68.15;99596.28;4999468;28;20084;-64
2022/04/13 01:36:19;;;;;;;19.10;4.18;;;;;;;11.63;67.84;99610.13;5000494;28;20140;-64
2022/04/13 01:39:04;;;;;;;;;;;;;;;11.62;67.58;99610.97;5015164;28;20041;-65
2022/04/13 01:41:48;;;;;;;7.82;4.05;;;;;;;11.62;67.70;99608.38;5000339;28;19924;-65
2022/04/13 01:44:33;;;;;;;10.32;4.05;;;;;;;11.60;67.82;99605.78;5000352;28;20103;-65
2022/04/13 01:47:17;;;;;;;7.85;4.20;;;;;;;11.62;67.97;99610.97;5014833;28;20113;-65
2022/04/13 01:50:00;;;;;;;10.70;5.05;;;;;;;11.61;68.03;99610.13;5000559;28;20108;-64
2022/04/13 01:52:46;;;;;;;10.25;4.82;;;;;;;11.62;68.11;99616.16;5015096;28;20088;-65
2022/04/13 01:55:30;;;;;;;14.95;5.18;;;;;;;11.62;67.77;99618.75;5014460;28;20060;-65
2022/04/13 01:58:14;;;;;;;8.63;3.88;;;;;;;11.61;67.83;99620.50;5014834;28;20052;-65
2022/04/13 02:00:58;;;;;;;4.78;3.20;;;;;;;11.63;67.75;99623.09;5000166;28;20135;-65
2022/04/13 02:03:42;;;;;;;10.07;3.53;;;;;;;11.61;67.60;99614.44;5014541;28;20111;-64
2022/04/13 02:06:26;;;;;;;9.45;4.25;;;;;;;11.62;67.69;99621.38;5014713;28;20057;-65
2022/04/13 02:09:11;;;;;;;9.52;4.90;;;;;;;11.62;67.81;99623.97;5014756;28;20076;-65
2022/04/13 02:11:55;;;;;;;10.02;4.07;;;;;;;11.61;67.65;99630.88;5014158;28;20129;-64
2022/04/13 02:14:39;;;;;;;12.35;3.58;;;;;;;11.61;68.13;99627.41;5000229;28;20053;-64
2022/04/13 02:17:23;;;;;;;8.23;3.97;;;;;;;11.60;68.05;99628.31;4999560;28;20055;-64
2022/04/13 02:20:07;;;;;;;7.18;3.65;;;;;;;11.60;67.80;99629.16;5014727;28;20519;-64
2022/04/13 02:22:51;;;;;;;11.32;4.43;;;;;;;11.61;68.27;99637.78;5013875;28;20132;-65
2022/04/13 02:25:35;;;;;;;9.10;4.53;;;;;;;11.61;67.90;99630.88;5014563;28;20044;-65
2022/04/13 02:28:19;;;;;;;11.07;4.82;;;;;;;11.61;68.38;99632.59;5014127;28;20045;-65
2022/04/13 02:31:03;;;;;;;9.55;4.20;;;;;;;11.60;68.18;99636.94;4999265;28;20125;-64
2022/04/13 02:33:51;;;;;;;9.43;4.90;;;;;;;11.60;68.32;99631.75;4999972;28;20060;-65
2022/04/13 02:36:35;;;;;;;14.68;4.57;;;;;;;11.61;68.28;99637.78;5013999;28;20133;-64
2022/04/13 02:39:19;;;;;;;7.18;4.53;;;;;;;11.61;68.02;99635.19;5014051;28;20056;-64
2022/04/13 02:42:04;;;;;;;9.05;4.28;;;;;;;11.59;68.02;99637.78;5014386;28;20041;-65
2022/04/13 02:44:49;;;;;;;6.90;3.88;;;;;;;11.58;68.03;99629.16;5013430;28;20048;-64
2022/04/13 02:47:33;;;;;;;;;;;;;;;11.57;68.13;99632.63;5013360;28;20117;-65
2022/04/13 02:50:17;;;;;;;9.55;3.95;;;;;;;11.56;68.22;99625.69;5013819;28;19944;-65
2022/04/13 02:53:01;;;;;;;8.88;4.47;;;;;;;11.57;67.91;99631.72;4999077;28;20117;-64
2022/04/13 02:55:45;;;;;;;8.23;4.22;;;;;;;11.57;68.29;99629.13;5012856;28;20125;-64
2022/04/13 02:58:29;;;;;;;8.52;4.00;;;;;;;11.56;68.01;99632.59;5013670;28;20412;-64
2022/04/13 03:01:12;;;;;;;11.43;3.78;;;;;;;11.56;68.21;99638.66;5013994;28;20049;-64
2022/04/13 03:03:56;;;;;;;6.45;3.95;;;;;;;11.55;68.29;99636.91;5013980;28;20044;-64
2022/04/13 03:06:40;;;;;;;7.63;3.97;;;;;;;11.56;67.79;99637.78;5014041;28;20092;-66
2022/04/13 03:09:24;;;;;;;9.55;4.35;;;;;;;11.55;67.81;99647.31;5013684;28;20049;-65
2022/04/13 03:12:09;;;;;;;;;;;;;;;11.53;68.01;99649.00;5014164;28;20524;-64
2022/04/13 03:14:53;;;;;;;8.30;4.47;;;;;;;11.52;68.51;99649.88;4999146;28;19920;-65
2022/04/13 03:17:37;;;;;;;9.30;3.53;;;;;;;11.53;68.28;99653.31;5013596;28;20132;-65
2022/04/13 03:20:21;;;;;;;10.25;4.10;;;;;;;11.52;68.48;99654.22;4998875;28;20472;-64
2022/04/13 03:23:05;;;;;;;9.57;3.58;;;;;;;11.52;68.15;99655.06;5013661;28;20137;-65
2022/04/13 03:25:49;;;;;;;8.57;3.78;;;;;;;11.53;68.36;99656.81;5013693;28;20432;-65
2022/04/13 03:28:33;;;;;;;7.53;3.95;;;;;;;11.51;68.27;99655.91;5013919;28;20113;-64
2022/04/13 03:31:18;;;;;;;6.15;3.92;;;;;;;11.53;68.37;99655.91;5012508;28;20084;-65
2022/04/13 03:34:02;;;;;;;9.43;4.20;;;;;;;11.51;68.01;99662.84;5013820;28;20084;-64
2022/04/13 03:36:50;;;;;;;8.55;3.95;;;;;;;11.52;68.17;99662.00;5013708;28;20101;-65
2022/04/13 03:39:33;;;;;;;6.20;3.70;;;;;;;11.51;68.23;99655.06;5013668;28;20131;-64
2022/04/13 03:42:17;;;;;;;9.60;3.85;;;;;;;11.52;68.36;99662.00;4998614;28;20076;-65
2022/04/13 03:45:06;;;;;;;13.07;4.40;;;;;;;11.52;68.06;99660.25;5013097;28;20180;-65
2022/04/13 03:47:50;;;;;;;7.32;4.20;;;;;;;11.51;68.21;99666.31;4998578;28;20045;-65
2022/04/13 03:50:34;;;;;;;9.38;3.97;;;;;;;11.50;68.17;99661.97;5013671;28;20092;-65
2022/04/13 03:53:18;;;;;;;5.18;3.10;;;;;;;11.50;68.04;99669.75;4998647;28;20571;-65
2022/04/13 03:56:02;;;;;;;6.50;4.00;;;;;;;11.50;68.32;99680.13;5015239;28;20421;-64
2022/04/13 03:58:46;;;;;;;7.43;4.53;;;;;;;11.49;68.54;99682.72;5017412;28;20105;-64
2022/04/13 04:01:31;;;;;;;9.93;4.20;;;;;;;11.49;68.51;99683.59;5016208;28;20128;-65
2022/04/13 04:04:15;;;;;;;12.88;3.70;;;;;;;11.49;68.43;99675.81;5002008;28;20045;-65
2022/04/13 04:06:59;;;;;;;12.30;3.70;;;;;;;11.49;68.46;99686.19;5017319;28;20523;-64
2022/04/13 04:09:44;;;;;;;6.97;3.40;;;;;;;11.48;68.34;99684.44;5016938;28;20081;-65
2022/04/13 04:12:28;;;;;;;6.32;3.40;;;;;;;11.48;68.16;99689.63;5002339;28;20108;-64
2022/04/13 04:15:12;;;;;;;7.60;3.83;;;;;;;11.48;68.65;99694.81;5016372;28;20052;-65
2022/04/13 04:17:55;;;;;;;5.25;3.20;;;;;;;11.48;68.71;99692.22;5002130;28;20056;-64
2022/04/13 04:20:39;;;;;;;5.78;3.92;;;;;;;11.48;68.08;99688.78;5016426;28;20125;-65
2022/04/13 04:23:23;;;;;;;9.13;3.72;;;;;;;11.49;68.40;99690.50;5016900;28;20099;-65
2022/04/13 04:26:08;;;;;;;8.85;4.30;;;;;;;11.48;68.71;99689.63;5016160;28;20413;-65
2022/04/13 04:28:52;;;;;;;6.13;3.72;;;;;;;11.48;68.35;99693.97;5016724;28;20124;-64
2022/04/13 04:31:51;;;;;;;7.78;3.60;;;;;;;11.48;68.18;99693.97;5001723;28;20049;-64
2022/04/13 04:34:35;;;;;;;5.65;3.45;;;;;;;11.47;68.56;99695.69;5016240;28;20115;-65
2022/04/13 04:37:19;;;;;;;6.72;3.78;;;;;;;11.47;68.67;99700.00;5016337;28;20049;-64
2022/04/13 04:40:03;;;;;;;6.20;3.35;;;;;;;11.45;68.54;99705.19;5016292;28;20112;-65
2022/04/13 04:42:47;;;;;;;;;;;;;;;11.43;68.42;99707.78;5002119;28;20060;-65
2022/04/13 04:45:31;;;;;;;6.20;4.32;;;;;;;11.42;68.57;99710.38;5016035;28;20006;-65
2022/04/13 04:48:15;;;;;;;6.78;3.80;;;;;;;11.42;68.76;99708.63;5016623;28;20626;-65
2022/04/13 04:50:59;;;;;;;8.43;3.88;;;;;;;11.43;68.83;99714.69;5016496;28;20103;-64
2022/04/13 04:53:43;;;;;;;8.07;4.38;;;;;;;11.42;68.40;99708.63;5015984;28;20579;-65
2022/04/13 04:56:27;;;;;;;6.03;4.00;;;;;;;11.42;68.41;99718.16;5015903;28;20103;-64
2022/04/13 04:59:11;;;;;;;;;;;;;;;11.40;68.69;99717.28;5001746;28;20104;-65
2022/04/13 05:01:56;;;;;;;7.18;4.88;;;;;;;11.39;68.71;99723.31;5001014;28;19968;-64
2022/04/13 05:04:39;;;;;;;7.28;4.15;;;;;;;11.38;68.88;99718.97;5000824;28;20478;-65
2022/04/13 05:07:23;;;;;;;8.10;5.15;;;;;;;11.38;69.02;99724.16;5015364;28;20052;-64
2022/04/13 05:10:08;;;;;;;9.63;4.47;;;;;;;11.39;68.51;99733.69;5015790;28;20049;-65
2022/04/13 05:12:56;;;;;;;8.63;4.57;;;;;;;11.39;68.90;99739.72;5000961;28;20069;-65
2022/04/13 05:15:41;;;;;;;7.47;4.20;;;;;;;11.39;68.81;99742.34;5001271;28;20044;-65
2022/04/13 05:18:25;;;;;;;8.63;3.67;;;;;;;11.40;68.99;99757.03;5015148;28;20105;-65
2022/04/13 05:21:09;;;;;;;9.02;4.53;;;;;;;11.40;68.94;99761.38;5015481;28;20049;-65
2022/04/13 05:23:53;;;;;;;5.50;3.80;;;;;;;11.39;68.85;99762.22;5000514;28;20564;-64
2022/04/13 05:26:38;;;;;;;9.40;5.57;;;;;;;11.38;68.57;99761.34;5015309;28;20405;-65
2022/04/13 05:29:22;;;;;;;6.72;3.58;;;;;;;11.39;68.50;99767.41;5015413;28;20045;-64
2022/04/13 05:32:07;;;;;;;7.80;4.68;;;;;;;11.39;68.71;99763.09;5015347;28;20074;-65
2022/04/13 05:34:57;;;;;;;8.05;4.50;;;;;;;11.39;68.89;99759.63;5015153;28;20061;-64
2022/04/13 05:37:41;;;;;;;7.90;5.00;;;;;;;11.40;68.45;99769.16;5000440;28;20175;-64
2022/04/13 05:40:25;;;;;;;12.15;5.22;;;;;;;11.39;68.88;99767.41;5000605;28;20049;-65
2022/04/13 05:43:09;;;;;;;15.38;6.43;;;;;;;11.40;68.72;99766.56;5000222;28;20100;-64
2022/04/13 05:45:53;;;;;;;15.00;7.88;;;;;;;11.40;68.70;99759.63;5015148;28;20128;-64
2022/04/13 05:48:38;;;;;;;12.80;6.50;;;;;;;11.40;68.75;99774.34;5015303;28;20125;-64
2022/04/13 05:51:22;;;;;;;12.35;5.78;;;;;;;11.40;68.92;99776.94;5014711;28;20153;-65
2022/04/13 05:54:06;;;;;;;13.40;5.40;;;;;;;11.39;69.05;99770.03;5014966;28;20052;-65
2022/04/13 05:56:50;;;;;;;17.65;5.55;;;;;;;11.40;68.94;99779.53;5014881;28;20471;-65
2022/04/13 05:59:35;;;;;;;7.75;5.18;;;;;;;11.40;68.90;99779.53;5014855;28;20045;-66
2022/04/13 06:02:19;;;;;;;14.75;5.82;;;;;;;11.40;68.94;99779.53;4994279;28;20053;-64
2022/04/13 06:05:05;;;;;;;8.20;4.10;;;;;;;11.40;68.81;99777.81;4995027;28;20089;-65
2022/04/13 06:07:48;;;;;;;9.57;4.32;;;;;;;11.40;68.68;99775.22;4994418;28;20100;-65
2022/04/13 06:10:32;;;;;;;15.85;6.22;;;;;;;11.40;68.68;99777.81;4994951;28;20116;-66
2022/04/13 06:13:16;;;;;;;10.05;5.30;;;;;;;11.40;68.88;99783.00;4995118;28;20515;-64
2022/04/13 06:16:01;;;;;;;9.77;5.90;;;;;;;11.41;68.95;99783.88;4994661;28;20065;-64
2022/04/13 06:18:45;;;;;;;17.33;7.13;;;;;;;11.42;68.51;99778.69;4994723;28;20053;-65
2022/04/13 06:21:29;;;;;;;11.48;6.32;;;;;;;11.42;68.63;99783.88;4994691;28;20097;-65
2022/04/13 06:24:12;;;;;;;13.23;5.35;;;;;;;11.43;68.77;99792.56;4994722;28;20097;-65
2022/04/13 06:26:57;;;;;;;16.10;6.65;;;;;;;11.43;69.08;99796.00;4993808;28;20046;-64
2022/04/13 06:29:41;;;;;;;11.57;6.10;;;;;;;11.43;69.21;99801.19;4995464;28;20101;-64
2022/04/13 06:32:36;;;;;;;10.60;4.95;;;;;;;11.42;68.56;99799.44;4994717;28;20100;-64
2022/04/13 06:35:20;;;;;;;8.02;4.65;;;;;;;11.44;68.83;99809.84;4993567;28;20464;-65
2022/04/13 06:38:04;;;;;;;13.60;5.28;;;;;;;11.45;68.83;99813.31;4994720;28;20100;-65
2022/04/13 06:40:48;;;;;;;8.30;5.40;;;;;;;11.45;68.74;99814.16;4994482;28;20410;-64
2022/04/13 06:43:32;;;;;;;9.88;5.60;;;;;;;11.46;69.06;99821.09;4994279;28;20077;-65
2022/04/13 06:46:16;;;;;;;12.35;5.97;;;;;;;11.47;69.05;99824.56;4993055;28;20116;-66
2022/04/13 06:49:00;;;;;;;11.57;6.40;;;;;;;11.47;68.81;99832.38;4994146;28;20045;-64
2022/04/13 06:51:43;;;;;;;12.50;7.78;;;;;;;11.47;69.23;99833.22;4994079;28;20052;-65
2022/04/13 06:54:27;;;;;;;15.88;7.32;;;;;;;11.47;69.20;99830.63;4993896;28;20053;-65
2022/04/13 06:57:12;;;;;;;22.98;7.90;;;;;;;11.48;69.01;99832.38;4993465;28;20077;-64
2022/04/13 06:59:56;;;;;;;16.38;8.65;;;;;;;11.49;69.07;99834.09;4993417;28;20426;-65
2022/04/13 07:02:41;;;;;;;15.25;10.02;;;;;;;11.50;69.39;99838.44;5006908;28;20116;-63
2022/04/13 07:05:25;;;;;;;13.13;8.73;;;;;;;11.51;69.39;99841.91;5013855;28;20096;-64
2022/04/13 07:08:09;;;;;;;19.73;9.27;;;;;;;11.51;68.75;99855.75;4998685;28;20096;-65
2022/04/13 07:10:53;;;;;;;18.98;11.27;;;;;;;11.53;69.11;99856.63;5013629;28;20441;-65
2022/04/13 07:13:37;;;;;;;22.35;11.70;;;;;;;11.54;69.03;99865.28;5014023;28;20056;-64
2022/04/13 07:16:21;;;;;;;19.90;11.30;;;;;;;11.54;69.54;99860.97;5013593;28;20115;-64
2022/04/13 07:19:05;;;;;;;22.75;12.43;;;;;;;11.56;69.01;99868.75;4998741;28;20049;-65
2022/04/13 07:21:49;;;;;;;23.77;12.00;;;;;;;11.57;68.97;99876.59;5013222;28;20057;-65
2022/04/13 07:24:33;;;;;;;20.95;12.52;;;;;;;11.58;69.54;99872.25;5013311;28;20049;-64
2022/04/13 07:27:17;;;;;;;20.17;11.98;;;;;;;11.58;68.99;99878.31;5013657;28;20461;-64
2022/04/13 07:30:01;;;;;;;;;;;;;;;11.57;69.52;99886.97;5014250;28;20085;-64
2022/04/13 07:32:47;;;;;;;19.98;12.27;;;;;;;11.56;69.18;99880.03;5017793;28;19924;-65
2022/04/13 07:35:32;;;;;;;22.77;12.23;;;;;;;11.58;69.44;99872.25;5003149;28;20131;-64
2022/04/13 07:38:16;;;;;;;25.10;12.50;;;;;;;11.59;69.06;99868.81;5017319;28;20079;-65
2022/04/13 07:41:02;;;;;;;23.23;11.73;;;;;;;11.59;69.69;99879.19;5017273;28;20124;-64
2022/04/13 07:43:46;;;;;;;18.70;10.93;;;;;;;11.60;69.63;99886.13;5017343;28;20052;-65
2022/04/13 07:46:30;;;;;;;21.48;12.07;;;;;;;11.62;69.34;99888.72;5002836;28;20100;-64
2022/04/13 07:49:14;;;;;;;21.90;12.85;;;;;;;11.60;69.41;99880.91;5017674;28;20131;-65
2022/04/13 07:52:00;;;;;;;22.17;12.20;;;;;;;11.61;69.21;99893.06;5017127;28;20122;-64
2022/04/13 07:54:44;;;;;;;19.17;11.88;;;;;;;11.61;69.22;99886.97;5017328;28;20080;-65
2022/04/13 07:57:28;;;;;;;17.95;11.55;;;;;;;11.62;69.05;99883.53;5002594;28;20053;-64
2022/04/13 08:00:13;;;;;;;18.60;11.63;;;;;;;11.63;69.48;99885.25;5017102;28;20040;-65
2022/04/13 08:02:57;;;;;;;24.63;11.80;;;;;;;11.64;69.56;99887.00;5001563;28;20112;-64
2022/04/13 08:05:41;;;;;;;27.90;12.65;;;;;;;11.64;69.59;99885.28;5016838;28;20044;-64
2022/04/13 08:08:25;;;;;;;19.77;11.50;;;;;;;11.64;69.63;99881.81;5017061;28;20045;-64
2022/04/13 08:11:09;;;;;;;22.85;11.63;;;;;;;11.65;69.27;99888.75;5017258;28;20126;-64
2022/04/13 08:13:53;;;;;;;20.48;10.85;;;;;;;11.65;69.45;99892.22;5016732;28;20049;-66
2022/04/13 08:16:37;;;;;;;18.20;10.73;;;;;;;11.67;69.87;99897.41;5017170;28;20048;-64
2022/04/13 08:19:21;;;;;;;;;;;;;;;11.66;69.41;99893.97;5017111;28;20138;-64
2022/04/13 08:22:05;;;;;;;26.05;12.50;;;;;;;11.66;69.62;99896.56;5016576;28;20347;-64
2022/04/13 08:24:49;;;;;;;20.83;11.23;;;;;;;11.66;69.73;99903.47;5001983;28;20049;-65
2022/04/13 08:27:33;;;;;;;18.48;10.13;;;;;;;11.66;69.49;99901.75;5016491;28;20084;-65
2022/04/13 08:30:17;;;;;;;14.18;10.43;;;;;;;11.68;69.82;99904.34;5016430;28;20096;-64
2022/04/13 08:33:01;;;;;;;;;;;;;;;11.68;69.67;99909.53;5002351;28;20528;-64
2022/04/13 08:35:45;;;;;;;21.73;11.15;;;;;;;11.68;69.56;99907.81;5016635;28;19920;-64
2022/04/13 08:38:29;;;;;;;18.77;11.45;;;;;;;11.71;69.53;99907.00;5016673;28;20041;-65
2022/04/13 08:41:27;;;;;;;17.55;11.32;;;;;;;11.72;69.50;99906.13;5015342;28;20057;-64
2022/04/13 08:44:22;;;;;;;29.38;11.93;;;;;;;11.73;69.52;99910.47;5016222;28;20052;-64
2022/04/13 08:47:11;;;;;;;15.63;10.25;;;;;;;11.73;69.56;99921.72;5016511;28;20092;-64
2022/04/13 08:49:56;;;;;;;24.63;12.20;;;;;;;11.75;69.59;99926.06;5016291;28;20563;-64
2022/04/13 08:52:41;;;;;;;20.77;11.10;;;;;;;11.76;69.52;99920.00;5001294;28;20053;-64
2022/04/13 08:55:27;;;;;;;17.42;10.75;;;;;;;11.77;69.48;99924.34;5001196;28;20049;-64
2022/04/13 08:58:28;;;;;;;15.30;10.35;;;;;;;11.80;69.74;99939.97;5001760;28;20065;-64
2022/04/13 09:01:32;;;;;;;21.38;11.00;;;;;;;11.79;69.54;99940.81;5001168;28;20048;-65
2022/04/13 09:04:20;;;;;;;20.92;12.15;;;;;;;11.80;69.62;99940.81;5001132;28;20052;-64
2022/04/13 09:07:06;;;;;;;20.63;11.15;;;;;;;11.82;69.52;99946.03;5001360;28;20126;-64
2022/04/13 09:09:53;;;;;;;18.80;12.45;;;;;;;11.84;69.71;99945.19;5001325;28;20129;-64
2022/04/13 09:12:39;;;;;;;22.48;12.55;;;;;;;11.85;69.50;99954.72;5000696;28;20049;-64
2022/04/13 09:15:24;;;;;;;19.52;11.18;;;;;;;11.86;69.87;99952.97;5001241;28;20628;-64
2022/04/13 09:18:09;;;;;;;19.38;11.57;;;;;;;11.87;69.43;99968.59;5000904;28;20112;-64
2022/04/13 09:20:53;;;;;;;20.10;12.57;;;;;;;11.87;69.55;99963.41;5000834;28;20469;-65
2022/04/13 09:23:37;;;;;;;19.55;12.98;;;;;;;11.91;69.79;99972.06;5001003;28;20508;-64
2022/04/13 09:26:24;;;;;;;21.40;12.82;;;;;;;11.91;69.46;99982.47;5001025;28;20563;-64
2022/04/13 09:29:08;;;;;;;20.35;13.25;;;;;;;11.92;69.67;99986.81;5000489;28;20052;-64
2022/04/13 09:31:52;;;;;;;22.17;13.30;;;;;;;11.93;69.78;99978.16;5015182;28;20095;-65
2022/04/13 09:34:36;;;;;;;22.27;13.90;;;;;;;11.94;69.58;99973.81;5001141;28;20468;-64
2022/04/13 09:37:20;;;;;;;21.20;12.98;;;;;;;11.96;70.06;99972.13;5000611;28;20402;-64
2022/04/13 09:40:05;;;;;;;24.95;12.60;;;;;;;11.97;69.43;99981.66;5000761;28;20049;-64
2022/04/13 09:42:49;;;;;;;;;;;;;;;11.95;69.58;99979.06;5015583;28;20568;-64
2022/04/13 09:45:44;;;;;;;22.40;12.30;;;;;;;11.96;70.02;99985.09;5015109;28;19924;-64
2022/04/13 09:48:29;;;;;;;23.70;13.82;;;;;;;11.96;69.85;99985.09;5014873;28;20044;-64
2022/04/13 09:51:13;;;;;;;21.85;14.30;;;;;;;11.97;69.53;99989.44;5000461;28;20068;-64
2022/04/13 09:54:04;;;;;;;24.63;13.38;;;;;;;12.00;70.04;99989.50;5014199;28;20200;-64
2022/04/13 09:56:48;;;;;;;25.15;13.88;;;;;;;12.02;69.88;99993.00;5000238;28;20048;-64
2022/04/13 09:59:32;;;;;;;21.67;14.05;;;;;;;12.05;69.98;99992.13;5014896;28;20189;-64
2022/04/13 10:02:36;;;;;;;20.85;13.45;;;;;;;12.05;69.98;99985.25;5014796;28;20060;-65
2022/04/13 10:05:21;;;;;;;24.57;13.37;;;;;;;12.08;69.92;99986.97;5000469;28;20108;-64
2022/04/13 10:08:10;;;;;;;18.40;14.13;;;;;;;12.10;69.90;99988.72;5000314;28;20405;-64
2022/04/13 10:10:58;;;;;;;22.33;14.10;;;;;;;12.13;70.16;99985.31;4999711;28;20041;-65
2022/04/13 10:13:46;;;;;;;26.38;13.93;;;;;;;12.14;69.86;99994.84;5000326;28;20072;-65
2022/04/13 10:16:37;;;;;;;24.58;14.75;;;;;;;12.15;69.88;99999.16;5014922;28;20049;-65
2022/04/13 10:19:22;;;;;;;23.88;15.23;;;;;;;12.16;69.84;99995.69;4999985;28;20049;-64
2022/04/13 10:22:06;;;;;;;;;;;;;;;12.17;69.66;99998.34;5000262;28;20092;-65
2022/04/13 10:24:50;;;;;;;22.48;14.55;;;;;;;12.16;69.93;99999.19;4999420;28;20403;-64
2022/04/13 10:27:33;;;;;;;24.60;13.80;;;;;;;12.19;70.01;100000.94;5014496;28;20127;-64
2022/04/13 10:30:27;;;;;;;24.40;14.70;;;;;;;12.19;69.96;100011.31;5014028;28;20053;-64
2022/04/13 10:33:13;;;;;;;28.80;14.07;;;;;;;12.20;69.96;100004.41;4999648;28;20107;-64
2022/04/13 10:35:57;;;;;;;21.23;13.23;;;;;;;12.20;69.88;100012.22;5014562;28;20137;-65
2022/04/13 10:38:41;;;;;;;21.77;13.25;;;;;;;12.21;70.06;100019.16;5014232;28;20053;-64
2022/04/13 10:41:26;;;;;;;22.00;13.52;;;;;;;12.20;70.18;100020.00;5014391;28;20117;-64
2022/04/13 10:44:10;;;;;;;21.65;14.02;;;;;;;12.23;69.92;100027.78;4998951;28;20048;-65
2022/04/13 10:47:00;;;;;;;21.27;14.63;;;;;;;12.23;70.14;100020.88;4999381;28;20084;-64
2022/04/13 10:49:59;;;;;;;24.50;16.17;;;;;;;12.27;70.05;100025.25;4999447;28;20583;-65
2022/04/13 10:52:56;;;;;;;26.35;15.82;;;;;;;12.27;69.98;100027.88;5013643;28;20112;-64
2022/04/13 10:55:42;;;;;;;23.13;14.57;;;;;;;12.28;70.23;100033.91;5013849;28;20120;-64
2022/04/13 10:58:58;;;;;;;27.10;16.40;;;;;;;12.29;70.16;100038.25;4999073;28;20048;-64
2022/04/13 11:01:50;;;;;;;23.63;15.60;;;;;;;12.28;70.33;100034.81;4999198;28;20093;-64
2022/04/13 11:04:34;;;;;;;22.33;14.65;;;;;;;12.29;70.20;100039.16;4998465;28;20091;-64
2022/04/13 11:07:19;;;;;;;21.65;13.48;;;;;;;12.31;70.21;100033.94;5013874;28;20484;-64
2022/04/13 11:10:05;;;;;;;20.70;14.77;;;;;;;12.32;70.14;100039.16;4999163;28;20045;-65
2022/04/13 11:12:50;;;;;;;27.58;16.00;;;;;;;12.30;70.40;100043.47;4999105;28;20069;-65
2022/04/13 11:15:42;;;;;;;;;;;;;;;12.30;70.17;100034.81;4999464;28;20460;-65
2022/04/13 11:18:26;;;;;;;19.13;13.80;;;;;;;12.30;70.33;100032.22;4998837;28;20364;-64
2022/04/13 11:21:10;;;;;;;19.77;13.95;;;;;;;12.31;70.33;100036.56;4998876;28;20410;-65
2022/04/13 11:23:54;;;;;;;23.27;14.40;;;;;;;12.33;70.51;100032.25;5013446;28;20077;-64
2022/04/13 11:26:41;;;;;;;;;;;;;;;12.32;70.22;100038.28;5014285;28;20053;-64
2022/04/13 11:29:33;;;;;;;21.27;13.70;;;;;;;12.33;70.33;100042.63;4998736;28;19936;-65
2022/04/13 11:32:24;;;;;;;20.08;14.38;;;;;;;12.34;70.38;100046.97;4998674;28;20053;-64
2022/04/13 11:35:22;;;;;;;20.05;15.05;;;;;;;12.34;70.35;100039.19;4998763;28;20057;-65
2022/04/13 11:38:06;;;;;;;21.63;15.20;;;;;;;12.37;70.74;100043.53;4999014;28;20049;-64
2022/04/13 11:41:05;;;;;;;22.20;14.10;;;;;;;12.37;70.47;100047.00;4998503;28;20053;-65
2022/04/13 11:43:49;;;;;;;21.77;14.38;;;;;;;12.37;70.77;100044.41;4998449;28;20049;-64
2022/04/13 11:46:39;;;;;;;19.25;14.38;;;;;;;12.39;70.46;100045.25;4998872;28;20104;-65
2022/04/13 11:49:31;;;;;;;21.52;13.55;;;;;;;12.40;70.62;100039.22;5013711;28;20168;-64
2022/04/13 11:52:46;;;;;;;20.85;15.25;;;;;;;12.43;70.88;100048.78;4998693;28;20053;-65
2022/04/13 11:55:32;;;;;;;20.60;14.93;;;;;;;12.42;70.88;100050.50;4998452;28;20095;-64
2022/04/13 11:58:21;;;;;;;27.55;15.27;;;;;;;12.44;70.51;100051.38;5012388;28;20076;-65
2022/04/13 12:01:11;;;;;;;20.63;13.90;;;;;;;12.43;70.54;100052.25;5013373;28;20184;-65
2022/04/13 12:03:57;;;;;;;23.73;13.13;;;;;;;12.44;70.87;100045.34;4974386;28;20045;-65
2022/04/13 12:06:41;;;;;;;21.73;15.02;;;;;;;12.46;70.60;100048.78;4974370;28;20050;-64
2022/04/13 12:09:26;;;;;;;16.25;11.85;;;;;;;12.47;70.65;100055.72;4973094;28;20093;-64
2022/04/13 12:12:14;;;;;;;18.55;11.88;;;;;;;12.46;71.13;100056.59;4973875;28;20050;-64
2022/04/13 12:14:58;;;;;;;20.77;12.65;;;;;;;12.47;70.77;100048.81;4973516;28;20053;-64
2022/04/13 12:17:42;;;;;;;15.73;12.20;;;;;;;12.49;71.01;100052.31;4976786;28;20089;-65
2022/04/13 12:20:27;;;;;;;18.55;12.88;;;;;;;12.49;71.11;100054.91;4976655;28;20054;-64
2022/04/13 12:23:21;;;;;;;17.60;12.13;;;;;;;12.50;70.62;100063.56;4976424;28;20053;-65
2022/04/13 12:26:07;;;;;;;18.80;12.60;;;;;;;12.51;70.79;100060.09;4977756;28;20053;-65
2022/04/13 12:28:51;;;;;;;14.45;10.93;;;;;;;12.51;70.99;100054.06;4977134;28;20132;-65
2022/04/13 12:31:45;;;;;;;17.25;12.23;;;;;;;12.52;70.84;100056.66;4976889;28;20407;-64
2022/04/13 12:34:29;;;;;;;21.00;11.80;;;;;;;12.52;70.53;100066.19;4976551;28;20129;-65
2022/04/13 12:37:17;;;;;;;27.20;11.27;;;;;;;12.51;70.70;100067.91;4977453;28;20097;-64
2022/04/13 12:40:29;;;;;;;19.90;12.60;;;;;;;12.53;71.06;100073.13;4977286;28;20049;-64
2022/04/13 12:43:26;;;;;;;16.88;11.02;;;;;;;12.54;70.68;100078.34;4976882;28;20147;-64
2022/04/13 12:46:13;;;;;;;17.58;10.98;;;;;;;12.55;70.94;100071.38;4977294;28;20414;-64
2022/04/13 12:48:58;;;;;;;13.27;9.95;;;;;;;12.54;70.90;100067.94;4976544;28;20574;-64
2022/04/13 12:51:42;;;;;;;14.07;9.45;;;;;;;12.57;70.77;100072.28;4976615;28;20220;-63